createdAt,value
2018-04-07T00:00:55.733Z,4.70
2018-04-07T00:03:25.560Z,4.30
2018-04-07T00:05:54.971Z,4.27
2018-04-07T00:08:23.860Z,4.20
2018-04-07T00:10:52.716Z,4.50
2018-04-07T00:13:22.361Z,4.70
2018-04-07T00:15:51.216Z,4.73
2018-04-07T00:18:20.050Z,4.40
2018-04-07T00:20:49.437Z,4.60
2018-04-07T00:23:18.324Z,4.60
2018-04-07T00:25:47.176Z,4.50
2018-04-07T00:28:16.063Z,4.67
2018-04-07T00:30:44.940Z,4.67
2018-04-07T00:33:13.809Z,5.13
2018-04-07T00:35:42.696Z,4.97
2018-04-07T00:38:11.558Z,4.40
2018-04-07T00:40:40.395Z,5.00
2018-04-07T00:43:09.237Z,4.30
2018-04-07T00:45:38.104Z,5.07
2018-04-07T00:48:06.946Z,4.80
2018-04-07T00:50:35.812Z,4.70
2018-04-07T00:53:04.710Z,4.77
2018-04-07T00:55:33.566Z,5.33
2018-04-07T00:58:03.117Z,5.17
2018-04-07T01:00:31.999Z,5.37
2018-04-07T01:03:00.855Z,4.77
2018-04-07T01:05:30.271Z,5.07
2018-04-07T01:07:59.102Z,5.07
2018-04-07T01:10:27.933Z,4.70
2018-04-07T01:12:56.821Z,5.37
2018-04-07T01:15:25.675Z,4.93
2018-04-07T01:17:54.517Z,5.47
2018-04-07T01:20:24.311Z,4.90
2018-04-07T01:22:53.202Z,5.00
2018-04-07T01:25:22.087Z,5.50
2018-04-07T01:27:50.953Z,5.50
2018-04-07T01:30:19.863Z,5.10
2018-04-07T01:32:48.975Z,5.13
2018-04-07T01:35:17.880Z,5.00
2018-04-07T01:37:46.720Z,5.00
2018-04-07T01:40:15.575Z,5.00
2018-04-07T01:42:44.441Z,5.50
2018-04-07T01:45:13.286Z,4.97
2018-04-07T01:47:43.086Z,5.53
2018-04-07T01:50:16.456Z,5.30
2018-04-07T01:52:46.515Z,4.93
2018-04-07T01:55:15.835Z,5.07
2018-04-07T01:57:44.695Z,5.50
2018-04-07T02:00:14.329Z,5.37
2018-04-07T02:02:43.184Z,5.07
2018-04-07T02:05:12.020Z,5.70
2018-04-07T02:07:41.109Z,5.17
2018-04-07T02:10:09.990Z,5.23
2018-04-07T02:12:38.848Z,5.60
2018-04-07T02:15:07.700Z,5.43
2018-04-07T02:17:36.562Z,5.40
2018-04-07T02:20:05.660Z,5.33
2018-04-07T02:22:35.107Z,5.27
2018-04-07T02:25:03.993Z,5.67
2018-04-07T02:27:33.411Z,5.63
2018-04-07T02:30:02.926Z,5.47
2018-04-07T02:32:31.777Z,5.80
2018-04-07T02:35:00.610Z,5.73
2018-04-07T02:37:30.556Z,5.53
2018-04-07T02:39:59.444Z,5.90
2018-04-07T02:42:28.513Z,5.83
2018-04-07T02:44:57.386Z,5.13
2018-04-07T02:47:27.146Z,5.80
2018-04-07T02:49:56.001Z,5.43
2018-04-07T02:52:24.860Z,5.27
2018-04-07T02:54:54.646Z,6.00
2018-04-07T02:57:23.485Z,6.47
2018-04-07T02:59:52.332Z,5.27
2018-04-07T03:02:21.193Z,5.37
2018-04-07T03:04:50.099Z,5.97
2018-04-07T03:07:18.977Z,5.27
2018-04-07T03:09:47.851Z,5.63
2018-04-07T03:12:16.699Z,5.70
2018-04-07T03:14:45.539Z,5.57
2018-04-07T03:17:14.402Z,5.40
2018-04-07T03:19:43.241Z,5.90
2018-04-07T03:22:12.907Z,5.60
2018-04-07T03:24:45.055Z,5.70
2018-04-07T03:27:13.897Z,5.63
2018-04-07T03:29:43.625Z,5.20
2018-04-07T03:32:12.620Z,5.23
2018-04-07T03:34:41.777Z,5.93
2018-04-07T03:37:10.611Z,5.03
2018-04-07T03:39:39.485Z,5.70
2018-04-07T03:42:10.112Z,5.53
2018-04-07T03:44:38.979Z,5.50
2018-04-07T03:47:07.864Z,5.63
2018-04-07T03:49:36.719Z,6.00
2018-04-07T03:52:05.641Z,5.47
2018-04-07T03:54:34.509Z,6.07
2018-04-07T03:57:04.491Z,5.73
2018-04-07T03:59:33.344Z,5.80
2018-04-07T04:02:05.163Z,5.30
2018-04-07T04:04:34.051Z,5.60
2018-04-07T04:07:03.391Z,5.50
2018-04-07T04:09:32.299Z,6.20
2018-04-07T04:12:01.211Z,5.63
2018-04-07T04:14:30.047Z,5.90
2018-04-07T04:16:58.913Z,5.97
2018-04-07T04:19:27.769Z,5.50
2018-04-07T04:21:56.639Z,6.00
2018-04-07T04:24:25.537Z,5.63
2018-04-07T04:26:54.385Z,6.20
2018-04-07T04:29:23.969Z,5.90
2018-04-07T04:31:52.879Z,5.77
2018-04-07T04:34:21.711Z,6.17
2018-04-07T04:36:50.581Z,5.73
2018-04-07T04:39:19.467Z,6.60
2018-04-07T04:41:48.335Z,6.03
2018-04-07T04:44:17.195Z,5.57
2018-04-07T04:46:46.092Z,6.03
2018-04-07T04:49:14.931Z,6.20
2018-04-07T04:51:44.629Z,6.40
2018-04-07T04:54:13.522Z,5.97
2018-04-07T04:56:42.360Z,5.97
2018-04-07T04:59:11.225Z,6.27
2018-04-07T05:01:40.063Z,5.90
2018-04-07T05:04:09.861Z,5.93
2018-04-07T05:06:38.731Z,6.10
2018-04-07T05:09:07.591Z,6.10
2018-04-07T05:11:36.428Z,5.97
2018-04-07T05:14:05.307Z,6.47
2018-04-07T05:16:34.988Z,6.40
2018-04-07T05:19:03.842Z,6.30
2018-04-07T05:21:33.387Z,6.00
2018-04-07T05:24:02.241Z,6.17
2018-04-07T05:26:31.097Z,6.17
2018-04-07T05:28:59.982Z,6.60
2018-04-07T05:31:30.285Z,6.00
2018-04-07T05:33:59.161Z,6.20
2018-04-07T05:36:28.647Z,6.43
2018-04-07T05:38:57.486Z,6.07
2018-04-07T05:41:26.352Z,6.67
2018-04-07T05:43:55.262Z,6.20
2018-04-07T05:46:24.142Z,6.80
2018-04-07T05:48:53.003Z,6.03
2018-04-07T05:51:22.184Z,6.40
2018-04-07T05:53:51.039Z,6.07
2018-04-07T05:56:19.905Z,6.33
2018-04-07T05:58:49.472Z,6.60
2018-04-07T06:01:18.326Z,6.73
2018-04-07T06:03:47.261Z,6.87
2018-04-07T06:06:16.120Z,6.87
2018-04-07T06:08:44.956Z,6.57
2018-04-07T06:11:13.824Z,5.67
2018-04-07T06:13:42.680Z,6.30
2018-04-07T06:16:11.860Z,5.73
2018-04-07T06:18:40.724Z,6.87
2018-04-07T06:21:09.580Z,6.90
2018-04-07T06:23:38.417Z,5.70
2018-04-07T06:26:07.298Z,6.73
2018-04-07T06:28:36.138Z,6.33
2018-04-07T06:31:05.988Z,6.23
2018-04-07T06:33:34.848Z,6.50
2018-04-07T06:36:03.700Z,6.83
2018-04-07T06:38:32.594Z,5.63
2018-04-07T06:41:02.041Z,5.63
2018-04-07T06:43:30.882Z,6.13
2018-04-07T06:45:59.720Z,6.00
2018-04-07T06:48:28.618Z,5.83
2018-04-07T06:50:57.490Z,6.23
2018-04-07T06:53:26.343Z,6.20
2018-04-07T06:55:55.249Z,6.30
2018-04-07T06:58:24.102Z,6.33
2018-04-07T07:00:53.856Z,6.70
2018-04-07T07:03:23.978Z,6.63
2018-04-07T07:05:52.830Z,6.10
2018-04-07T07:08:21.688Z,6.90
2018-04-07T07:10:50.523Z,6.23
2018-04-07T07:13:19.369Z,6.47
2018-04-07T07:15:48.491Z,6.60
2018-04-07T07:18:17.365Z,6.70
2018-04-07T07:20:46.246Z,6.70
2018-04-07T07:23:15.128Z,6.40
2018-04-07T07:25:43.975Z,5.90
2018-04-07T07:28:12.822Z,6.50
2018-04-07T07:30:42.426Z,6.40
2018-04-07T07:33:11.271Z,6.20
2018-04-07T07:35:40.984Z,6.77
2018-04-07T07:38:09.822Z,6.43
2018-04-07T07:40:38.697Z,6.40
2018-04-07T07:43:08.247Z,6.30
2018-04-07T07:45:37.096Z,6.27
2018-04-07T07:48:05.987Z,6.37
2018-04-07T07:50:34.833Z,6.73
2018-04-07T07:53:04.557Z,6.70
2018-04-07T07:55:33.415Z,6.20
2018-04-07T07:58:02.311Z,6.37
2018-04-07T08:00:31.662Z,6.67
2018-04-07T08:03:00.522Z,7.07
2018-04-07T08:05:30.037Z,6.60
2018-04-07T08:07:59.745Z,6.73
2018-04-07T08:10:28.657Z,6.53
2018-04-07T08:12:57.491Z,6.50
2018-04-07T08:15:26.371Z,6.47
2018-04-07T08:17:55.293Z,6.37
2018-04-07T08:20:24.139Z,6.80
2018-04-07T08:22:53.005Z,6.67
2018-04-07T08:25:22.596Z,6.13
2018-04-07T08:27:52.303Z,6.50
2018-04-07T08:30:21.243Z,6.00
2018-04-07T08:35:37.081Z,7.13
2018-04-07T08:38:06.006Z,6.20
2018-04-07T08:40:34.853Z,6.20
2018-04-07T08:43:03.755Z,6.57
2018-04-07T08:45:33.759Z,6.27
2018-04-07T08:48:02.631Z,6.60
2018-04-07T08:50:31.501Z,6.73
2018-04-07T08:53:00.813Z,5.73
2018-04-07T08:55:30.311Z,5.80
2018-04-07T08:57:59.200Z,5.97
2018-04-07T09:00:28.366Z,5.93
2018-04-07T09:02:57.199Z,5.63
2018-04-07T09:05:29.040Z,5.50
2018-04-07T09:07:58.149Z,5.53
2018-04-07T09:10:27.939Z,5.43
2018-04-07T09:12:57.075Z,5.40
2018-04-07T09:15:25.908Z,5.20
2018-04-07T09:17:54.790Z,5.13
2018-04-07T09:20:24.231Z,5.03
2018-04-07T09:22:53.068Z,5.63
2018-04-07T09:25:23.392Z,5.33
2018-04-07T09:27:52.280Z,5.90
2018-04-07T09:30:21.144Z,5.50
2018-04-07T09:32:50.264Z,4.10
2018-04-07T09:35:19.104Z,4.10
2018-04-07T09:37:47.938Z,4.33
2018-04-07T09:40:16.868Z,4.00
2018-04-07T09:42:45.737Z,3.63
2018-04-07T09:45:14.584Z,3.70
2018-04-07T09:47:44.292Z,3.73
2018-04-07T09:50:13.139Z,3.50
2018-04-07T09:52:42.576Z,3.47
2018-04-07T09:55:11.444Z,3.77
2018-04-07T09:57:40.282Z,3.17
2018-04-07T10:00:09.168Z,3.73
2018-04-07T10:02:38.058Z,3.27
2018-04-07T10:05:06.901Z,3.37
2018-04-07T10:07:35.748Z,3.20
2018-04-07T10:10:04.609Z,2.83
2018-04-07T10:12:33.452Z,3.10
2018-04-07T10:15:03.001Z,2.87
2018-04-07T10:17:31.867Z,3.30
2018-04-07T10:20:01.329Z,3.20
2018-04-07T10:22:31.076Z,3.10
2018-04-07T10:24:59.934Z,2.97
2018-04-07T10:27:29.079Z,3.40
2018-04-07T10:29:57.910Z,3.07
2018-04-07T10:32:26.775Z,3.47
2018-04-07T10:34:55.617Z,3.00
2018-04-07T10:37:25.073Z,3.07
2018-04-07T10:39:53.999Z,2.87
2018-04-07T10:42:23.839Z,3.17
2018-04-07T10:44:53.417Z,3.03
2018-04-07T10:47:22.989Z,3.20
2018-04-07T10:49:52.012Z,3.20
2018-04-07T10:52:20.865Z,3.33
2018-04-07T10:54:50.189Z,2.70
2018-04-07T10:57:19.051Z,3.13
2018-04-07T10:59:47.903Z,2.73
2018-04-07T11:02:16.807Z,3.17
2018-04-07T11:04:45.679Z,3.10
2018-04-07T11:07:15.139Z,3.20
2018-04-07T11:09:45.519Z,3.07
2018-04-07T11:12:14.372Z,2.80
2018-04-07T11:14:43.256Z,3.10
2018-04-07T11:17:12.239Z,2.87
2018-04-07T11:19:42.287Z,3.23
2018-04-07T11:22:11.307Z,3.50
2018-04-07T11:24:41.215Z,3.23
2018-04-07T11:27:10.076Z,3.27
2018-04-07T11:29:38.953Z,3.50
2018-04-07T11:32:07.976Z,5.27
2018-04-07T11:34:36.819Z,3.20
2018-04-07T11:37:05.712Z,3.50
2018-04-07T11:39:34.595Z,3.40
2018-04-07T11:42:04.919Z,3.60
2018-04-07T11:44:33.772Z,3.50
2018-04-07T11:47:03.133Z,3.47
2018-04-07T11:49:31.985Z,3.83
2018-04-07T11:52:00.915Z,3.10
2018-04-07T11:54:29.756Z,3.60
2018-04-07T11:56:58.600Z,3.37
2018-04-07T11:59:27.478Z,3.50
2018-04-07T12:01:57.296Z,3.70
2018-04-07T12:04:33.588Z,3.50
2018-04-07T12:07:03.038Z,3.73
2018-04-07T12:09:31.942Z,3.17
2018-04-07T12:12:00.767Z,3.10
2018-04-07T12:14:29.618Z,3.50
2018-04-07T12:16:58.928Z,3.30
2018-04-07T12:19:30.004Z,3.27
2018-04-07T12:21:58.884Z,3.00
2018-04-07T12:24:27.927Z,2.77
2018-04-07T12:26:56.776Z,1.90
2018-04-07T12:29:25.653Z,2.30
2018-04-07T12:31:54.484Z,2.40
2018-04-07T12:34:23.311Z,2.47
2018-04-07T12:36:52.172Z,2.83
2018-04-07T12:39:21.002Z,2.20
2018-04-07T12:41:49.840Z,2.27
2018-04-07T12:44:18.725Z,2.47
2018-04-07T12:46:47.592Z,2.40
2018-04-07T12:49:16.453Z,2.60
2018-04-07T12:51:45.308Z,2.50
2018-04-07T12:54:14.144Z,2.17
2018-04-07T12:56:43.020Z,2.20
2018-04-07T12:59:11.890Z,2.37
2018-04-07T13:01:40.748Z,2.07
2018-04-07T13:04:09.592Z,2.13
2018-04-07T13:06:38.476Z,2.33
2018-04-07T13:09:07.354Z,2.47
2018-04-07T13:11:36.224Z,2.27
2018-04-07T13:14:05.132Z,2.80
2018-04-07T13:16:34.026Z,2.80
2018-04-07T13:19:03.129Z,2.10
2018-04-07T13:21:31.982Z,2.67
2018-04-07T13:24:00.829Z,3.33
2018-04-07T13:26:31.332Z,2.27
2018-04-07T13:29:00.251Z,2.30
2018-04-07T13:31:29.094Z,2.33
2018-04-07T13:33:57.958Z,2.40
2018-04-07T13:36:26.850Z,2.30
2018-04-07T13:38:55.697Z,2.80
2018-04-07T13:41:24.537Z,1.90
2018-04-07T13:43:53.419Z,2.60
2018-04-07T13:46:23.126Z,2.17
2018-04-07T13:48:51.995Z,2.30
2018-04-07T13:51:20.861Z,2.63
2018-04-07T13:53:50.430Z,2.37
2018-04-07T13:56:19.659Z,2.40
2018-04-07T13:58:49.245Z,2.63
2018-04-07T14:01:18.121Z,2.17
2018-04-07T14:03:47.017Z,2.33
2018-04-07T14:06:15.875Z,2.23
2018-04-07T14:08:44.712Z,2.40
2018-04-07T14:11:13.554Z,2.50
2018-04-07T14:13:43.196Z,2.40
2018-04-07T14:16:12.032Z,2.17
2018-04-07T14:18:40.866Z,2.80
2018-04-07T14:21:09.751Z,2.30
2018-04-07T14:23:38.589Z,3.10
2018-04-07T14:26:07.431Z,2.60
2018-04-07T14:28:36.339Z,2.47
2018-04-07T14:31:06.046Z,3.23
2018-04-07T14:33:34.884Z,2.80
2018-04-07T14:36:03.777Z,2.70
2018-04-07T14:38:32.624Z,2.97
2018-04-07T14:41:01.492Z,3.13
2018-04-07T14:43:30.363Z,3.20
2018-04-07T14:45:59.228Z,2.80
2018-04-07T14:48:28.099Z,2.07
2018-04-07T14:50:56.977Z,2.53
2018-04-07T14:53:25.825Z,2.80
2018-04-07T14:55:55.539Z,2.83
2018-04-07T14:58:24.427Z,2.57
2018-04-07T15:00:53.314Z,2.50
2018-04-07T15:03:22.414Z,2.53
2018-04-07T15:05:51.432Z,3.13
2018-04-07T15:08:20.305Z,2.60
2018-04-07T15:10:49.157Z,2.47
2018-04-07T15:13:18.019Z,2.90
2018-04-07T15:15:46.881Z,2.90
2018-04-07T15:18:15.716Z,3.13
2018-04-07T15:20:44.571Z,2.93
2018-04-07T15:23:14.169Z,3.83
2018-04-07T15:25:46.937Z,3.20
2018-04-07T15:28:17.510Z,4.13
2018-04-07T15:30:46.449Z,3.10
2018-04-07T15:33:15.329Z,2.80
2018-04-07T15:35:44.180Z,3.00
2018-04-07T15:38:13.047Z,3.30
2018-04-07T15:40:41.883Z,3.10
2018-04-07T15:43:10.740Z,2.30
2018-04-07T15:45:39.586Z,2.40
2018-04-07T15:48:09.068Z,2.77
2018-04-07T15:50:38.680Z,3.40
2018-04-07T15:53:07.689Z,2.70
2018-04-07T15:55:37.519Z,2.60
2018-04-07T15:58:06.676Z,4.80
2018-04-07T16:00:35.520Z,4.57
2018-04-07T16:03:05.213Z,3.27
2018-04-07T16:05:35.821Z,2.50
2018-04-07T16:08:04.694Z,2.60
2018-04-07T16:10:33.573Z,2.23
2018-04-07T16:13:03.906Z,3.33
2018-04-07T16:15:32.791Z,2.70
2018-04-07T16:18:01.625Z,2.87
2018-04-07T16:20:30.464Z,2.53
2018-04-07T16:22:59.356Z,2.30
2018-04-07T16:25:28.533Z,2.87
2018-04-07T16:27:57.384Z,2.80
2018-04-07T16:30:26.272Z,2.50
2018-04-07T16:32:55.135Z,2.10
2018-04-07T16:35:24.019Z,2.33
2018-04-07T16:37:52.848Z,3.40
2018-04-07T16:40:24.227Z,3.57
2018-04-07T16:42:53.135Z,3.57
2018-04-07T16:45:23.220Z,2.27
2018-04-07T16:47:52.034Z,2.20
2018-04-07T16:50:20.908Z,2.30
2018-04-07T16:52:49.770Z,2.50
2018-04-07T16:55:18.700Z,2.20
2018-04-07T16:57:47.631Z,2.10
2018-04-07T17:00:16.464Z,2.13
2018-04-07T17:02:45.311Z,2.70
2018-04-07T17:05:14.452Z,2.60
2018-04-07T17:07:43.923Z,2.10
2018-04-07T17:10:12.795Z,2.40
2018-04-07T17:12:41.656Z,2.27
2018-04-07T17:15:11.440Z,2.57
2018-04-07T17:17:40.289Z,2.50
2018-04-07T17:20:09.143Z,2.40
2018-04-07T17:22:37.978Z,2.33
2018-04-07T17:25:06.819Z,2.57
2018-04-07T17:27:35.771Z,2.57
2018-04-07T17:30:04.611Z,2.50
2018-04-07T17:32:33.467Z,2.50
2018-04-07T17:35:02.387Z,2.40
2018-04-07T17:37:31.224Z,2.37
2018-04-07T17:40:00.059Z,2.40
2018-04-07T17:42:29.481Z,2.70
2018-04-07T17:44:58.315Z,2.33
2018-04-07T17:47:27.853Z,2.20
2018-04-07T17:49:56.715Z,2.90
2018-04-07T17:52:25.651Z,2.50
2018-04-07T17:54:54.484Z,2.80
2018-04-07T17:57:23.430Z,2.60
2018-04-07T17:59:52.270Z,2.73
2018-04-07T18:02:21.516Z,2.20
2018-04-07T18:04:50.908Z,2.60
2018-04-07T18:07:20.220Z,2.77
2018-04-07T18:09:49.858Z,2.70
2018-04-07T18:12:18.949Z,2.70
2018-04-07T18:14:48.527Z,3.50
2018-04-07T18:17:17.420Z,3.17
2018-04-07T18:19:46.508Z,3.03
2018-04-07T18:22:15.383Z,2.43
2018-04-07T18:24:44.812Z,2.80
2018-04-07T18:27:14.574Z,2.50
2018-04-07T18:29:44.041Z,2.93
2018-04-07T18:32:12.874Z,3.00
2018-04-07T18:34:41.714Z,3.13
2018-04-07T18:37:11.587Z,3.00
2018-04-07T18:39:40.443Z,2.90
2018-04-07T18:42:10.112Z,3.10
2018-04-07T18:44:40.156Z,2.97
2018-04-07T18:47:09.937Z,3.20
2018-04-07T18:49:38.844Z,3.40
2018-04-07T18:52:07.684Z,2.90
2018-04-07T18:54:36.560Z,3.07
2018-04-07T18:57:05.548Z,2.80
2018-04-07T18:59:34.505Z,3.50
2018-04-07T19:02:04.318Z,3.70
2018-04-07T19:04:33.224Z,3.23
2018-04-07T19:07:02.065Z,2.93
2018-04-07T19:09:31.092Z,2.90
2018-04-07T19:11:59.980Z,3.17
2018-04-07T19:14:29.910Z,3.17
2018-04-07T19:16:58.799Z,3.03
2018-04-07T19:19:27.636Z,2.80
2018-04-07T19:21:56.482Z,3.00
2018-04-07T19:24:25.829Z,3.13
2018-04-07T19:26:55.442Z,3.03
2018-04-07T19:29:24.299Z,3.30
2018-04-07T19:31:53.141Z,3.20
2018-04-07T19:34:21.983Z,3.13
2018-04-07T19:36:51.199Z,3.20
2018-04-07T19:39:20.051Z,3.27
2018-04-07T19:41:49.668Z,3.63
2018-04-07T19:44:18.533Z,3.07
2018-04-07T19:46:47.417Z,3.13
2018-04-07T19:49:16.319Z,4.03
2018-04-07T19:51:45.177Z,3.80
2018-04-07T19:54:14.039Z,3.90
2018-04-07T19:56:42.894Z,9.67
2018-04-07T19:59:11.740Z,4.70
2018-04-07T20:01:40.595Z,4.40
2018-04-07T20:04:09.923Z,4.13
2018-04-07T20:06:39.785Z,4.40
2018-04-07T20:09:08.597Z,4.07
2018-04-07T20:11:38.140Z,4.50
2018-04-07T20:14:07.024Z,4.67
2018-04-07T20:16:35.889Z,4.70
2018-04-07T20:19:04.807Z,6.30
2018-04-07T20:21:34.680Z,5.43
2018-04-07T20:24:03.885Z,6.40
2018-04-07T20:26:32.746Z,6.30
2018-04-07T20:29:02.300Z,7.20
2018-04-07T20:31:31.143Z,7.70
2018-04-07T20:33:59.999Z,8.93
2018-04-07T20:36:29.119Z,9.70
2018-04-07T20:38:57.980Z,7.77
2018-04-07T20:41:26.859Z,8.07
2018-04-07T20:43:55.713Z,7.93
2018-04-07T20:46:24.829Z,7.90
2018-04-07T20:48:54.433Z,8.43
2018-04-07T20:51:24.012Z,7.03
2018-04-07T20:53:52.863Z,8.03
2018-04-07T20:56:21.724Z,7.33
2018-04-07T20:58:51.146Z,7.60
2018-04-07T21:01:19.988Z,7.40
2018-04-07T21:03:49.748Z,8.27
2018-04-07T21:06:18.593Z,8.50
2018-04-07T21:08:47.438Z,7.07
2018-04-07T21:11:16.317Z,8.10
2018-04-07T21:13:45.204Z,7.53
2018-04-07T21:16:14.048Z,7.40
2018-04-07T21:18:43.564Z,7.53
2018-04-07T21:21:12.466Z,7.70
2018-04-07T21:23:41.298Z,7.20
2018-04-07T21:26:10.206Z,7.83
2018-04-07T21:28:39.052Z,7.90
2018-04-07T21:31:07.920Z,9.07
2018-04-07T21:33:36.794Z,10.07
2018-04-07T21:36:05.644Z,8.77
2018-04-07T21:38:34.484Z,10.20
2018-04-07T21:41:04.246Z,8.90
2018-04-07T21:43:33.056Z,8.40
2018-04-07T21:46:02.671Z,8.07
2018-04-07T21:48:31.558Z,8.83
2018-04-07T21:51:00.470Z,8.33
2018-04-07T21:53:30.136Z,7.90
2018-04-07T21:55:59.012Z,7.60
2018-04-07T21:58:27.868Z,7.60
2018-04-07T22:00:56.718Z,6.50
2018-04-07T22:05:59.494Z,5.67
2018-04-07T22:08:28.643Z,6.07
2018-04-07T22:10:57.999Z,6.20
2018-04-07T22:13:26.875Z,6.83
2018-04-07T22:15:55.731Z,6.93
2018-04-07T22:18:24.593Z,8.83
2018-04-07T22:20:53.459Z,7.63
2018-04-07T22:23:22.998Z,8.40
2018-04-07T22:25:51.871Z,8.33
2018-04-07T22:28:20.723Z,8.07
2018-04-07T22:30:51.082Z,8.23
2018-04-07T22:33:20.822Z,7.30
2018-04-07T22:35:51.501Z,6.60
2018-04-07T22:38:20.346Z,6.93
2018-04-07T22:40:49.194Z,6.80
2018-04-07T22:43:18.060Z,6.53
2018-04-07T22:45:46.922Z,6.03
2018-04-07T22:48:15.757Z,6.70
2018-04-07T22:50:44.715Z,6.87
2018-04-07T22:53:13.783Z,6.43
2018-04-07T22:55:43.703Z,6.27
2018-04-07T22:58:12.571Z,6.90
2018-04-07T23:00:41.945Z,7.00
2018-04-07T23:03:10.782Z,7.40
2018-04-07T23:05:39.644Z,7.93
2018-04-07T23:08:09.339Z,7.33
2018-04-07T23:10:38.225Z,8.07
2018-04-07T23:13:07.099Z,7.20
2018-04-07T23:15:35.944Z,7.73
2018-04-07T23:18:04.805Z,7.90
2018-04-07T23:20:33.669Z,8.77
2018-04-07T23:23:07.692Z,7.90
2018-04-07T23:25:36.553Z,7.63
2018-04-07T23:28:05.395Z,7.20
2018-04-07T23:30:34.261Z,7.90
2018-04-07T23:33:03.186Z,8.03
2018-04-07T23:35:32.561Z,7.63
2018-04-07T23:38:01.420Z,7.10
2018-04-07T23:40:30.314Z,7.60
2018-04-07T23:42:59.171Z,7.63
2018-04-07T23:45:28.009Z,7.57
2018-04-07T23:47:56.910Z,6.00
2018-04-07T23:50:25.754Z,6.93
2018-04-07T23:52:54.584Z,7.43
2018-04-07T23:55:23.449Z,6.97
2018-04-07T23:57:53.188Z,6.60
